Time;durP1;ratioP1;P1;durP2;ratioP2;P2;SDS_P1;SDS_P2;PMS_P1;PMS_P2;Temp;Humidity;BMP_temperature;BMP_pressure;BME280_temperature;BME280_humidity;BME280_pressure;Samples;Min_cycle;Max_cycle;Signal;HPM_P1;HPM_P2
2023/12/08 00:01:11;;;;;;;95.03;26.00;;;;;;;;;;2071545;28;21939;-79
2023/12/08 00:02:30;;;;;;;85.05;24.83;;;;;;;;;;2073610;28;20042;-79
2023/12/08 00:03:49;;;;;;;86.85;24.45;;;;;;;;;;2080698;28;20518;-79
2023/12/08 00:05:09;;;;;;;83.32;25.10;;;;;;;;;;2073083;28;20444;-79
2023/12/08 00:06:28;;;;;;;83.43;25.00;;;;;;;;;;2073752;28;20021;-79
2023/12/08 00:07:47;;;;;;;87.85;24.90;;;;;;;;;;2076961;28;20509;-79
2023/12/08 00:09:07;;;;;;;86.13;25.05;;;;;;;;;;2081662;28;20116;-79
2023/12/08 00:10:26;;;;;;;81.57;24.60;;;;;;;;;;2079101;28;20065;-78
2023/12/08 00:11:45;;;;;;;82.78;24.15;;;;;;;;;;2075891;28;20860;-79
2023/12/08 00:13:04;;;;;;;79.93;24.52;;;;;;;;;;2070627;28;20029;-79
2023/12/08 00:14:23;;;;;;;81.30;25.02;;;;;;;;;;2070976;28;20033;-79
2023/12/08 00:15:42;;;;;;;89.45;24.67;;;;;;;;;;2069989;28;20038;-79
2023/12/08 00:17:01;;;;;;;84.63;26.05;;;;;;;;;;2073532;28;20078;-79
2023/12/08 00:18:21;;;;;;;78.75;24.23;;;;;;;;;;2077208;28;20105;-80
2023/12/08 00:19:40;;;;;;;94.32;26.02;;;;;;;;;;2073046;28;20569;-79
2023/12/08 00:21:00;;;;;;;85.10;24.73;;;;;;;;;;2070853;28;20066;-79
2023/12/08 00:22:19;;;;;;;81.05;25.30;;;;;;;;;;2071190;28;20061;-79
2023/12/08 00:23:38;;;;;;;81.20;23.92;;;;;;;;;;2066054;28;20030;-79
2023/12/08 00:24:57;;;;;;;88.18;25.58;;;;;;;;;;2068758;28;20581;-79
2023/12/08 00:26:16;;;;;;;88.07;25.67;;;;;;;;;;2069985;28;20030;-80
2023/12/08 00:27:35;;;;;;;87.13;25.70;;;;;;;;;;2070142;28;20037;-80
2023/12/08 00:28:54;;;;;;;83.38;25.50;;;;;;;;;;2078579;28;20041;-79
2023/12/08 00:30:14;;;;;;;80.07;24.98;;;;;;;;;;2075906;28;20034;-79
2023/12/08 00:31:33;;;;;;;88.07;25.70;;;;;;;;;;2072280;28;20875;-79
2023/12/08 00:32:52;;;;;;;77.93;24.50;;;;;;;;;;2071830;28;20033;-79
2023/12/08 00:34:11;;;;;;;75.53;24.08;;;;;;;;;;2073385;28;20064;-79
2023/12/08 00:35:31;;;;;;;72.55;23.92;;;;;;;;;;2077049;28;20064;-79
2023/12/08 00:36:50;;;;;;;77.82;24.42;;;;;;;;;;2078934;28;20042;-79
2023/12/08 00:38:09;;;;;;;81.47;24.55;;;;;;;;;;2075524;28;20041;-79
2023/12/08 00:39:28;;;;;;;72.72;23.65;;;;;;;;;;2080292;28;20030;-79
2023/12/08 00:40:47;;;;;;;88.20;25.92;;;;;;;;;;2081471;28;20065;-79
2023/12/08 00:42:06;;;;;;;77.03;24.48;;;;;;;;;;2075816;28;20511;-80
2023/12/08 00:43:25;;;;;;;97.45;26.38;;;;;;;;;;2077395;28;20116;-79
2023/12/08 00:44:44;;;;;;;93.85;27.55;;;;;;;;;;2084192;28;20030;-79
2023/12/08 00:46:03;;;;;;;89.75;26.40;;;;;;;;;;2075035;28;20034;-79
2023/12/08 00:47:22;;;;;;;85.35;25.38;;;;;;;;;;2071310;28;20038;-79
2023/12/08 00:48:41;;;;;;;85.15;26.10;;;;;;;;;;2078141;28;20037;-79
2023/12/08 00:50:00;;;;;;;93.65;27.25;;;;;;;;;;2077655;28;20041;-78
2023/12/08 00:51:19;;;;;;;90.13;25.40;;;;;;;;;;2073045;28;20394;-78
2023/12/08 00:52:39;;;;;;;85.47;25.95;;;;;;;;;;2073300;28;20049;-78
2023/12/08 00:53:58;;;;;;;86.57;25.90;;;;;;;;;;2077590;28;20034;-79
2023/12/08 00:55:17;;;;;;;79.40;24.90;;;;;;;;;;2076472;28;20037;-78
2023/12/08 00:56:36;;;;;;;85.35;25.65;;;;;;;;;;2079918;28;20033;-79
2023/12/08 00:57:55;;;;;;;81.40;25.35;;;;;;;;;;2083479;28;20471;-79
2023/12/08 00:59:14;;;;;;;93.90;26.17;;;;;;;;;;2082259;28;20029;-79
2023/12/08 01:00:33;;;;;;;80.70;25.48;;;;;;;;;;2081894;28;20030;-79
2023/12/08 01:01:52;;;;;;;83.63;26.27;;;;;;;;;;2077229;28;20029;-80
2023/12/08 01:03:11;;;;;;;85.13;24.98;;;;;;;;;;2079028;28;20491;-79
2023/12/08 01:04:30;;;;;;;85.43;25.63;;;;;;;;;;2076396;28;20096;-79
2023/12/08 01:05:49;;;;;;;82.68;26.42;;;;;;;;;;2079100;28;20041;-79
2023/12/08 01:07:09;;;;;;;82.80;27.33;;;;;;;;;;2083123;28;20034;-79
2023/12/08 01:08:28;;;;;;;88.78;27.80;;;;;;;;;;2071030;28;20034;-79
2023/12/08 01:09:50;;;;;;;98.18;27.08;;;;;;;;;;2076698;28;20112;-79
2023/12/08 01:11:09;;;;;;;83.88;26.58;;;;;;;;;;2078574;28;20602;-79
2023/12/08 01:12:29;;;;;;;81.90;25.35;;;;;;;;;;2071796;28;20037;-79
2023/12/08 01:13:47;;;;;;;92.93;27.05;;;;;;;;;;2074172;28;20108;-79
2023/12/08 01:15:07;;;;;;;81.18;25.45;;;;;;;;;;2073652;28;20084;-78
2023/12/08 01:16:26;;;;;;;87.97;26.73;;;;;;;;;;2072333;28;20033;-79
2023/12/08 01:17:44;;;;;;;78.15;24.25;;;;;;;;;;2071733;28;20042;-79
2023/12/08 01:19:03;;;;;;;73.80;24.75;;;;;;;;;;2080060;28;20111;-79
2023/12/08 01:20:22;;;;;;;78.00;25.85;;;;;;;;;;2074433;28;20033;-79
2023/12/08 01:21:41;;;;;;;82.35;25.90;;;;;;;;;;2079170;28;20025;-79
2023/12/08 01:23:00;;;;;;;90.30;26.67;;;;;;;;;;2081396;28;20075;-79
2023/12/08 01:24:19;;;;;;;82.03;26.20;;;;;;;;;;2078301;28;20065;-79
2023/12/08 01:25:39;;;;;;;80.63;25.80;;;;;;;;;;2080461;28;20025;-79
2023/12/08 01:26:57;;;;;;;83.18;26.20;;;;;;;;;;2075058;28;20034;-79
2023/12/08 01:28:17;;;;;;;83.75;26.25;;;;;;;;;;2079330;28;20661;-79
2023/12/08 01:29:35;;;;;;;85.13;25.88;;;;;;;;;;2076304;28;20026;-79
2023/12/08 01:30:54;;;;;;;78.63;24.63;;;;;;;;;;2078574;28;20026;-79
2023/12/08 01:32:13;;;;;;;81.88;24.58;;;;;;;;;;2080308;28;20042;-79
2023/12/08 01:33:32;;;;;;;66.88;24.25;;;;;;;;;;2075435;28;20038;-79
2023/12/08 01:34:51;;;;;;;67.65;23.08;;;;;;;;;;2079212;28;20034;-79
2023/12/08 01:36:11;;;;;;;71.72;24.58;;;;;;;;;;2081255;28;20033;-79
2023/12/08 01:37:30;;;;;;;70.43;24.08;;;;;;;;;;2080567;28;20033;-79
2023/12/08 01:38:48;;;;;;;64.30;23.33;;;;;;;;;;2074859;28;20429;-79
2023/12/08 01:40:08;;;;;;;69.57;23.38;;;;;;;;;;2078624;28;20045;-79
2023/12/08 01:41:26;;;;;;;67.65;23.70;;;;;;;;;;2075540;28;20026;-79
2023/12/08 01:42:47;;;;;;;68.93;24.20;;;;;;;;;;2075174;28;20018;-79
2023/12/08 01:44:07;;;;;;;69.22;22.92;;;;;;;;;;2073146;28;20034;-79
2023/12/08 01:45:25;;;;;;;68.03;23.80;;;;;;;;;;2072340;28;20046;-80
2023/12/08 01:46:45;;;;;;;72.22;23.75;;;;;;;;;;2078927;28;20029;-79
2023/12/08 01:48:04;;;;;;;72.70;23.27;;;;;;;;;;2081178;28;20029;-79
2023/12/08 01:49:23;;;;;;;69.65;23.20;;;;;;;;;;2080691;28;20422;-79
2023/12/08 01:50:42;;;;;;;68.80;23.35;;;;;;;;;;2080613;28;20041;-79
2023/12/08 01:52:02;;;;;;;73.50;23.70;;;;;;;;;;2075467;28;20101;-79
2023/12/08 01:53:21;;;;;;;78.60;23.48;;;;;;;;;;2073727;28;20030;-79
2023/12/08 01:54:41;;;;;;;74.70;23.52;;;;;;;;;;2072227;28;20034;-78
2023/12/08 01:56:00;;;;;;;73.32;23.70;;;;;;;;;;2079076;28;20030;-78
2023/12/08 01:57:19;;;;;;;74.85;23.80;;;;;;;;;;2080647;28;20034;-79
2023/12/08 01:58:39;;;;;;;72.20;23.77;;;;;;;;;;2081950;28;21378;-78
2023/12/08 01:59:59;;;;;;;78.55;25.02;;;;;;;;;;2082708;28;20390;-79
2023/12/08 02:01:19;;;;;;;78.82;24.30;;;;;;;;;;2079698;28;20025;-79
2023/12/08 02:02:41;;;;;;;78.13;24.83;;;;;;;;;;2074863;28;20438;-79
2023/12/08 02:04:01;;;;;;;89.72;24.63;;;;;;;;;;2073869;28;20479;-79
2023/12/08 02:05:20;;;;;;;87.82;25.42;;;;;;;;;;2077453;28;20034;-79
2023/12/08 02:06:40;;;;;;;93.07;25.98;;;;;;;;;;2073774;28;20121;-79
2023/12/08 02:07:59;;;;;;;84.03;25.98;;;;;;;;;;2070791;28;20038;-80
2023/12/08 02:09:18;;;;;;;83.35;25.40;;;;;;;;;;2079065;28;20065;-79
2023/12/08 02:10:37;;;;;;;95.15;26.30;;;;;;;;;;2076774;28;20253;-80
2023/12/08 02:11:56;;;;;;;87.60;25.73;;;;;;;;;;2071881;28;20034;-79
2023/12/08 02:13:16;;;;;;;75.85;24.80;;;;;;;;;;2071942;28;20050;-79
2023/12/08 02:14:35;;;;;;;87.47;25.38;;;;;;;;;;2071285;28;20030;-79
2023/12/08 02:15:57;;;;;;;68.00;23.35;;;;;;;;;;2078502;28;20068;-79
2023/12/08 02:17:19;;;;;;;85.28;24.92;;;;;;;;;;2074602;28;20038;-79
2023/12/08 02:18:39;;;;;;;75.53;23.35;;;;;;;;;;2078566;28;20038;-79
2023/12/08 02:19:59;;;;;;;79.50;24.00;;;;;;;;;;2078849;28;20133;-79
2023/12/08 02:21:19;;;;;;;76.28;24.85;;;;;;;;;;2068049;28;20034;-80
2023/12/08 02:22:38;;;;;;;76.55;24.50;;;;;;;;;;2076855;28;20475;-79
2023/12/08 02:23:57;;;;;;;84.65;25.35;;;;;;;;;;2080823;28;20033;-79
2023/12/08 02:25:16;;;;;;;81.75;25.00;;;;;;;;;;2070368;28;20117;-79
2023/12/08 02:26:34;;;;;;;80.18;24.52;;;;;;;;;;2075761;28;20029;-79
2023/12/08 02:27:53;;;;;;;84.07;25.05;;;;;;;;;;2079955;28;20128;-80
2023/12/08 02:29:12;;;;;;;84.85;25.13;;;;;;;;;;2080754;28;20073;-80
2023/12/08 02:30:32;;;;;;;78.18;24.40;;;;;;;;;;2081495;28;20053;-79
2023/12/08 02:31:54;;;;;;;76.70;23.52;;;;;;;;;;2081015;28;20033;-79
2023/12/08 02:33:27;;;;;;;80.28;23.98;;;;;;;;;;2071536;28;20076;-79
2023/12/08 02:34:47;;;;;;;92.05;24.40;;;;;;;;;;2079563;28;20046;-79
2023/12/08 02:36:07;;;;;;;80.45;24.58;;;;;;;;;;2076034;28;20045;-79
2023/12/08 02:37:27;;;;;;;86.13;25.50;;;;;;;;;;2072845;28;20029;-79
2023/12/08 02:38:47;;;;;;;86.90;23.55;;;;;;;;;;2079525;28;20029;-79
2023/12/08 02:40:06;;;;;;;77.05;23.77;;;;;;;;;;2083674;28;20105;-79
2023/12/08 02:41:25;;;;;;;71.43;23.80;;;;;;;;;;2075283;28;20451;-79
2023/12/08 02:42:44;;;;;;;80.38;24.00;;;;;;;;;;2079341;28;20041;-80
2023/12/08 02:44:03;;;;;;;73.88;23.42;;;;;;;;;;2081968;28;20033;-79
2023/12/08 02:45:22;;;;;;;73.22;24.13;;;;;;;;;;2079449;28;20018;-79
2023/12/08 02:46:41;;;;;;;78.40;22.88;;;;;;;;;;2075773;28;20046;-79
2023/12/08 02:48:00;;;;;;;66.55;22.35;;;;;;;;;;2071043;28;20085;-80
2023/12/08 02:49:19;;;;;;;74.18;22.95;;;;;;;;;;2075513;28;20033;-79
2023/12/08 02:50:39;;;;;;;80.28;23.77;;;;;;;;;;2075028;28;20030;-80
2023/12/08 02:51:58;;;;;;;76.78;23.20;;;;;;;;;;2078946;28;20037;-80
2023/12/08 02:53:17;;;;;;;87.63;23.90;;;;;;;;;;2069814;28;20037;-80
2023/12/08 02:54:36;;;;;;;76.07;23.45;;;;;;;;;;2072835;28;20033;-80
2023/12/08 02:55:55;;;;;;;81.78;23.15;;;;;;;;;;2072298;28;20030;-79
2023/12/08 02:57:14;;;;;;;80.97;24.30;;;;;;;;;;2077122;28;20026;-80
2023/12/08 02:58:34;;;;;;;68.78;22.85;;;;;;;;;;2075040;28;20502;-79
2023/12/08 02:59:53;;;;;;;78.97;23.05;;;;;;;;;;2074400;28;20499;-79
2023/12/08 03:01:12;;;;;;;80.45;23.63;;;;;;;;;;2078539;28;20025;-80
2023/12/08 03:02:31;;;;;;;75.40;23.38;;;;;;;;;;2077572;28;20105;-80
2023/12/08 03:03:53;;;;;;;91.53;24.95;;;;;;;;;;2078462;28;20034;-79
2023/12/08 03:05:12;;;;;;;70.68;23.42;;;;;;;;;;2075785;28;20387;-79
2023/12/08 03:06:31;;;;;;;80.55;23.25;;;;;;;;;;2071573;28;20025;-80
2023/12/08 03:07:50;;;;;;;81.68;24.48;;;;;;;;;;2079708;28;20033;-79
2023/12/08 03:09:09;;;;;;;80.55;24.85;;;;;;;;;;2075270;28;20033;-79
2023/12/08 03:10:28;;;;;;;86.35;24.38;;;;;;;;;;2077699;28;20164;-79
2023/12/08 03:11:47;;;;;;;103.00;26.95;;;;;;;;;;2081042;28;20132;-79
2023/12/08 03:13:06;;;;;;;97.53;25.85;;;;;;;;;;2080748;28;20029;-80
2023/12/08 03:14:25;;;;;;;91.72;25.23;;;;;;;;;;2080026;28;20425;-79
2023/12/08 03:15:44;;;;;;;91.15;26.17;;;;;;;;;;2069495;28;20034;-79
2023/12/08 03:17:03;;;;;;;92.32;26.17;;;;;;;;;;2077139;28;20037;-79
2023/12/08 03:18:22;;;;;;;85.18;25.35;;;;;;;;;;2078710;28;20029;-80
2023/12/08 03:19:41;;;;;;;94.22;26.40;;;;;;;;;;2082212;28;20049;-79
2023/12/08 03:21:00;;;;;;;92.43;26.17;;;;;;;;;;2074981;28;20070;-79
2023/12/08 03:22:19;;;;;;;93.63;25.52;;;;;;;;;;2078318;28;20061;-79
2023/12/08 03:23:38;;;;;;;95.45;26.40;;;;;;;;;;2079834;28;20029;-79
2023/12/08 03:24:57;;;;;;;100.20;26.95;;;;;;;;;;2081519;28;20265;-79
2023/12/08 03:26:17;;;;;;;95.78;25.92;;;;;;;;;;2075885;28;20109;-79
2023/12/08 03:27:36;;;;;;;82.60;25.20;;;;;;;;;;2070750;28;20065;-79
2023/12/08 03:28:55;;;;;;;81.15;25.40;;;;;;;;;;2078511;28;20037;-79
2023/12/08 03:30:14;;;;;;;86.40;25.25;;;;;;;;;;2081803;28;20155;-79
2023/12/08 03:31:33;;;;;;;90.50;26.60;;;;;;;;;;2080362;28;20483;-79
2023/12/08 03:32:52;;;;;;;84.30;23.85;;;;;;;;;;2074687;28;20045;-79
2023/12/08 03:34:11;;;;;;;83.13;24.98;;;;;;;;;;2075490;28;20077;-79
2023/12/08 03:35:30;;;;;;;90.32;26.60;;;;;;;;;;2079812;28;20033;-79
2023/12/08 03:36:49;;;;;;;90.63;26.13;;;;;;;;;;2075196;28;20033;-80
2023/12/08 03:38:08;;;;;;;99.88;25.90;;;;;;;;;;2076913;28;20029;-79
2023/12/08 03:39:27;;;;;;;95.40;26.02;;;;;;;;;;2072011;28;20033;-79
2023/12/08 03:40:46;;;;;;;85.00;25.27;;;;;;;;;;2079026;28;20056;-79
2023/12/08 03:42:05;;;;;;;78.25;24.15;;;;;;;;;;2081535;28;20097;-79
2023/12/08 03:43:24;;;;;;;80.40;26.05;;;;;;;;;;2075688;28;20680;-79
2023/12/08 03:44:43;;;;;;;90.15;25.17;;;;;;;;;;2078428;28;20482;-79
2023/12/08 03:46:02;;;;;;;87.88;24.73;;;;;;;;;;2075805;28;20045;-79
2023/12/08 03:47:21;;;;;;;99.32;25.83;;;;;;;;;;2077905;28;20426;-79
2023/12/08 03:48:40;;;;;;;82.63;24.08;;;;;;;;;;2081973;28;20068;-78
2023/12/08 03:49:59;;;;;;;83.00;24.15;;;;;;;;;;2081744;28;20033;-79
2023/12/08 03:51:18;;;;;;;79.45;22.63;;;;;;;;;;2083933;28;20045;-78
2023/12/08 03:52:37;;;;;;;81.15;24.00;;;;;;;;;;2081817;28;20029;-79
2023/12/08 03:53:57;;;;;;;84.00;24.90;;;;;;;;;;2086991;28;20038;-79
2023/12/08 03:55:16;;;;;;;77.80;23.50;;;;;;;;;;2089952;28;20022;-80
2023/12/08 03:56:35;;;;;;;82.63;24.20;;;;;;;;;;2079488;28;20034;-79
2023/12/08 03:57:54;;;;;;;79.18;23.75;;;;;;;;;;2081756;28;20033;-79
2023/12/08 03:59:12;;;;;;;82.75;24.58;;;;;;;;;;2080404;28;20033;-78
2023/12/08 04:00:31;;;;;;;69.40;22.52;;;;;;;;;;2075567;28;20034;-79
2023/12/08 04:01:51;;;;;;;77.70;22.92;;;;;;;;;;2085705;28;20049;-79
2023/12/08 04:03:10;;;;;;;70.38;23.02;;;;;;;;;;2083147;28;20034;-79
2023/12/08 04:04:29;;;;;;;75.60;23.25;;;;;;;;;;2080569;28;20026;-79
2023/12/08 04:05:55;;;;;;;82.00;22.90;;;;;;;;;;2087960;28;20045;-80
2023/12/08 04:07:17;;;;;;;70.88;21.98;;;;;;;;;;2089926;28;20081;-80
2023/12/08 04:08:36;;;;;;;78.28;23.25;;;;;;;;;;2086871;28;20041;-79
2023/12/08 04:09:55;;;;;;;66.93;21.60;;;;;;;;;;2084470;28;20022;-79
2023/12/08 04:11:14;;;;;;;75.88;22.25;;;;;;;;;;2086200;28;20018;-79
2023/12/08 04:12:33;;;;;;;77.32;22.25;;;;;;;;;;2077198;28;20037;-79
2023/12/08 04:13:52;;;;;;;84.07;22.77;;;;;;;;;;2078296;28;20033;-79
2023/12/08 04:15:12;;;;;;;79.82;22.98;;;;;;;;;;2079853;28;20037;-79
2023/12/08 04:16:31;;;;;;;89.30;23.73;;;;;;;;;;2066478;28;20043;-79
2023/12/08 04:17:50;;;;;;;84.65;24.08;;;;;;;;;;2075761;28;20033;-79
2023/12/08 04:19:10;;;;;;;67.18;21.73;;;;;;;;;;2074985;28;20408;-79
2023/12/08 04:20:29;;;;;;;78.60;22.20;;;;;;;;;;2077994;28;20465;-79
2023/12/08 04:21:47;;;;;;;81.05;23.27;;;;;;;;;;2081518;28;20033;-79
2023/12/08 04:23:07;;;;;;;73.97;22.17;;;;;;;;;;2073887;28;20034;-79
2023/12/08 04:24:26;;;;;;;70.93;22.20;;;;;;;;;;2076375;28;20029;-79
2023/12/08 04:25:45;;;;;;;72.90;22.50;;;;;;;;;;2079154;28;20059;-79
2023/12/08 04:27:04;;;;;;;70.20;22.08;;;;;;;;;;2081127;28;20034;-79
2023/12/08 04:28:23;;;;;;;78.90;23.52;;;;;;;;;;2080949;28;20045;-79
2023/12/08 04:29:42;;;;;;;77.70;23.27;;;;;;;;;;2075200;28;20025;-79
2023/12/08 04:31:01;;;;;;;84.78;23.08;;;;;;;;;;2075890;28;20037;-79
2023/12/08 04:32:20;;;;;;;80.72;23.70;;;;;;;;;;2079575;28;20026;-79
2023/12/08 04:33:39;;;;;;;84.40;22.73;;;;;;;;;;2080729;28;20029;-79
2023/12/08 04:34:58;;;;;;;75.32;23.95;;;;;;;;;;2081464;28;20112;-79
2023/12/08 04:36:17;;;;;;;74.70;22.38;;;;;;;;;;2075254;28;20030;-79
2023/12/08 04:37:36;;;;;;;83.50;24.00;;;;;;;;;;2074170;28;20021;-79
2023/12/08 04:38:55;;;;;;;83.97;24.08;;;;;;;;;;2075732;28;20021;-79
2023/12/08 04:40:14;;;;;;;73.30;23.63;;;;;;;;;;2079774;28;20074;-79
2023/12/08 04:41:34;;;;;;;80.63;23.13;;;;;;;;;;2075306;28;20038;-79
2023/12/08 04:42:53;;;;;;;83.43;23.60;;;;;;;;;;2077440;28;20030;-80
2023/12/08 04:44:12;;;;;;;82.72;24.48;;;;;;;;;;2074779;28;20411;-79
2023/12/08 04:45:31;;;;;;;79.00;23.83;;;;;;;;;;2070954;28;20037;-79
2023/12/08 04:46:50;;;;;;;80.72;24.27;;;;;;;;;;2078626;28;20116;-79
2023/12/08 04:48:09;;;;;;;88.13;25.45;;;;;;;;;;2078800;28;20375;-79
2023/12/08 04:49:28;;;;;;;69.65;23.65;;;;;;;;;;2081260;28;20402;-79
2023/12/08 04:50:49;;;;;;;85.85;25.63;;;;;;;;;;2072965;28;20140;-80
2023/12/08 04:52:08;;;;;;;82.80;25.27;;;;;;;;;;2077688;28;20030;-79
2023/12/08 04:53:27;;;;;;;87.47;24.90;;;;;;;;;;2074791;28;20025;-79
2023/12/08 04:54:46;;;;;;;78.75;23.83;;;;;;;;;;2078849;28;20375;-80
2023/12/08 04:56:05;;;;;;;85.75;24.23;;;;;;;;;;2078975;28;20033;-79
2023/12/08 04:57:24;;;;;;;80.22;25.35;;;;;;;;;;2081620;28;20383;-79
2023/12/08 04:58:43;;;;;;;79.07;25.10;;;;;;;;;;2079839;28;20034;-79
2023/12/08 05:00:02;;;;;;;81.05;24.63;;;;;;;;;;2074384;28;20042;-79
2023/12/08 05:01:22;;;;;;;87.40;25.48;;;;;;;;;;2070491;28;20482;-79
2023/12/08 05:02:41;;;;;;;90.32;27.00;;;;;;;;;;2071180;28;20033;-79
2023/12/08 05:04:00;;;;;;;83.93;26.08;;;;;;;;;;2079375;28;20017;-79
2023/12/08 05:05:20;;;;;;;85.50;27.90;;;;;;;;;;2078843;28;20117;-79
2023/12/08 05:06:39;;;;;;;93.25;26.92;;;;;;;;;;2079839;28;20494;-80
2023/12/08 05:07:58;;;;;;;87.97;26.58;;;;;;;;;;2073638;28;20041;-80
2023/12/08 05:09:16;;;;;;;90.78;28.15;;;;;;;;;;2073553;28;20379;-79
2023/12/08 05:10:36;;;;;;;100.80;28.27;;;;;;;;;;2071954;28;20155;-80
2023/12/08 05:11:55;;;;;;;92.53;26.88;;;;;;;;;;2071443;28;20034;-79
2023/12/08 05:13:14;;;;;;;90.55;26.83;;;;;;;;;;2078273;28;20041;-80
2023/12/08 05:14:33;;;;;;;106.32;29.83;;;;;;;;;;2082026;28;20033;-79
2023/12/08 05:15:52;;;;;;;88.28;27.38;;;;;;;;;;2075932;28;20037;-80
2023/12/08 05:17:11;;;;;;;94.68;28.98;;;;;;;;;;2079789;28;20037;-80
2023/12/08 05:18:30;;;;;;;95.97;27.58;;;;;;;;;;2083439;28;20486;-79
2023/12/08 05:19:49;;;;;;;104.82;28.92;;;;;;;;;;2073344;28;20045;-80
2023/12/08 05:21:09;;;;;;;97.40;27.80;;;;;;;;;;2073489;28;20521;-80
2023/12/08 05:22:28;;;;;;;102.57;29.80;;;;;;;;;;2071901;28;20030;-80
2023/12/08 05:23:48;;;;;;;98.00;28.70;;;;;;;;;;2077066;28;20037;-80
2023/12/08 05:25:08;;;;;;;97.97;29.65;;;;;;;;;;2080973;28;20042;-79
2023/12/08 05:26:27;;;;;;;96.93;28.13;;;;;;;;;;2083431;28;21510;-80
2023/12/08 05:27:46;;;;;;;110.28;28.98;;;;;;;;;;2080823;28;20045;-80
2023/12/08 05:29:05;;;;;;;93.25;29.08;;;;;;;;;;2081658;28;20026;-79
2023/12/08 05:30:24;;;;;;;89.07;28.73;;;;;;;;;;2073809;28;20049;-82
2023/12/08 05:31:43;;;;;;;95.93;28.50;;;;;;;;;;2081067;28;20041;-80
2023/12/08 05:33:02;;;;;;;99.25;29.08;;;;;;;;;;2081209;28;20038;-79
2023/12/08 05:34:21;;;;;;;117.00;30.77;;;;;;;;;;2074437;28;20120;-79
2023/12/08 05:35:40;;;;;;;107.28;29.48;;;;;;;;;;2071598;28;20038;-79
2023/12/08 05:36:59;;;;;;;100.28;30.20;;;;;;;;;;2072448;28;20026;-79
2023/12/08 05:38:18;;;;;;;94.43;27.08;;;;;;;;;;2078975;28;20459;-78
2023/12/08 05:39:37;;;;;;;103.88;28.67;;;;;;;;;;2081638;28;20037;-79
2023/12/08 05:40:56;;;;;;;112.70;31.38;;;;;;;;;;2079849;28;20030;-79
2023/12/08 05:42:15;;;;;;;104.18;29.90;;;;;;;;;;2075579;28;20483;-79
2023/12/08 05:43:34;;;;;;;97.25;28.63;;;;;;;;;;2080610;28;20041;-77
2023/12/08 05:44:53;;;;;;;102.03;29.10;;;;;;;;;;2075408;28;20022;-77
2023/12/08 05:46:11;;;;;;;115.32;31.25;;;;;;;;;;2071637;28;20033;-77
2023/12/08 05:47:30;;;;;;;94.38;28.73;;;;;;;;;;2078623;28;20037;-77
2023/12/08 05:48:49;;;;;;;108.35;29.42;;;;;;;;;;2073861;28;20470;-77
2023/12/08 05:50:08;;;;;;;117.22;29.65;;;;;;;;;;2080085;28;20045;-77
2023/12/08 05:51:28;;;;;;;115.40;31.38;;;;;;;;;;2081471;28;20041;-77
2023/12/08 05:52:47;;;;;;;103.47;29.40;;;;;;;;;;2081897;28;20034;-77
2023/12/08 05:54:06;;;;;;;120.10;31.23;;;;;;;;;;2074702;28;20510;-76
2023/12/08 05:55:25;;;;;;;101.82;30.40;;;;;;;;;;2078603;28;20057;-76
2023/12/08 05:56:44;;;;;;;103.93;29.33;;;;;;;;;;2073367;28;20069;-76
2023/12/08 05:58:02;;;;;;;100.93;29.65;;;;;;;;;;2078154;28;20038;-76
2023/12/08 05:59:21;;;;;;;104.50;30.33;;;;;;;;;;2081390;28;20108;-76
2023/12/08 06:00:41;;;;;;;102.53;29.38;;;;;;;;;;2079997;28;20029;-76
2023/12/08 06:02:00;;;;;;;109.95;30.85;;;;;;;;;;2076254;28;20053;-75
2023/12/08 06:03:20;;;;;;;102.05;29.67;;;;;;;;;;2079843;28;20410;-76
2023/12/08 06:04:39;;;;;;;108.43;30.33;;;;;;;;;;2080452;28;20029;-77
2023/12/08 06:05:58;;;;;;;101.40;29.38;;;;;;;;;;2070930;28;20061;-77
2023/12/08 06:07:17;;;;;;;104.70;29.63;;;;;;;;;;2070341;28;20034;-77
2023/12/08 06:08:37;;;;;;;110.10;30.13;;;;;;;;;;2072019;28;20113;-77
2023/12/08 06:09:55;;;;;;;104.68;29.30;;;;;;;;;;2070618;28;20030;-76
2023/12/08 06:11:14;;;;;;;113.75;31.27;;;;;;;;;;2073226;28;20033;-77
2023/12/08 06:12:34;;;;;;;99.88;29.55;;;;;;;;;;2078322;28;20029;-76
2023/12/08 06:13:53;;;;;;;109.00;31.27;;;;;;;;;;2075335;28;20038;-77
2023/12/08 06:15:11;;;;;;;106.28;30.45;;;;;;;;;;2077537;28;20029;-77
2023/12/08 06:16:31;;;;;;;104.22;29.35;;;;;;;;;;2081627;28;20041;-77
2023/12/08 06:17:49;;;;;;;94.93;28.63;;;;;;;;;;2080989;28;20521;-76
2023/12/08 06:19:09;;;;;;;97.68;28.40;;;;;;;;;;2074842;28;20125;-76
2023/12/08 06:20:28;;;;;;;96.15;28.15;;;;;;;;;;2075302;28;20037;-76
2023/12/08 06:21:47;;;;;;;116.38;30.15;;;;;;;;;;2079822;28;20120;-77
2023/12/08 06:23:06;;;;;;;100.00;30.20;;;;;;;;;;2079897;28;20029;-76
2023/12/08 06:24:25;;;;;;;91.22;27.10;;;;;;;;;;2079870;28;20501;-78
2023/12/08 06:25:44;;;;;;;93.35;27.30;;;;;;;;;;2073051;28;20034;-78
2023/12/08 06:27:04;;;;;;;110.63;29.33;;;;;;;;;;2078056;28;20030;-77
2023/12/08 06:28:23;;;;;;;94.43;28.23;;;;;;;;;;2071152;28;20522;-77
2023/12/08 06:29:41;;;;;;;103.63;28.52;;;;;;;;;;2078385;28;20038;-76
2023/12/08 06:31:01;;;;;;;101.03;28.70;;;;;;;;;;2079533;28;20147;-77
2023/12/08 06:32:20;;;;;;;95.75;28.08;;;;;;;;;;2081074;28;20026;-77
2023/12/08 06:33:40;;;;;;;105.63;30.15;;;;;;;;;;2079610;28;20025;-77
2023/12/08 06:34:59;;;;;;;101.07;29.55;;;;;;;;;;2080388;28;20034;-77
2023/12/08 06:36:19;;;;;;;104.45;28.70;;;;;;;;;;2080709;28;20034;-77
2023/12/08 06:37:38;;;;;;;92.80;28.48;;;;;;;;;;2078870;28;20037;-76
2023/12/08 06:38:57;;;;;;;88.97;27.45;;;;;;;;;;2073264;28;20089;-76
2023/12/08 06:40:15;;;;;;;96.78;28.42;;;;;;;;;;2078226;28;20042;-76
2023/12/08 06:41:35;;;;;;;98.70;28.58;;;;;;;;;;2080355;28;20029;-76
2023/12/08 06:42:54;;;;;;;93.78;27.95;;;;;;;;;;2081044;28;20034;-76
2023/12/08 06:44:13;;;;;;;98.10;27.25;;;;;;;;;;2075102;28;20038;-77
2023/12/08 06:45:33;;;;;;;85.50;26.80;;;;;;;;;;2070267;28;20021;-77
2023/12/08 06:46:52;;;;;;;108.05;28.42;;;;;;;;;;2075483;28;20033;-75
2023/12/08 06:48:11;;;;;;;93.95;27.83;;;;;;;;;;2073882;28;20021;-77
2023/12/08 06:49:31;;;;;;;97.40;28.92;;;;;;;;;;2077827;28;20045;-77
2023/12/08 06:50:53;;;;;;;95.47;27.30;;;;;;;;;;2081405;28;20671;-77
2023/12/08 06:52:12;;;;;;;95.85;28.35;;;;;;;;;;2074292;28;20483;-77
2023/12/08 06:53:30;;;;;;;92.25;27.35;;;;;;;;;;2076816;28;20037;-77
2023/12/08 06:54:49;;;;;;;98.43;27.63;;;;;;;;;;2080039;28;20493;-78
2023/12/08 06:56:08;;;;;;;96.90;27.55;;;;;;;;;;2073787;28;20038;-77
2023/12/08 06:57:27;;;;;;;97.20;28.13;;;;;;;;;;2070001;28;20640;-77
2023/12/08 06:58:46;;;;;;;84.32;26.45;;;;;;;;;;2079727;28;20050;-77
2023/12/08 07:00:10;;;;;;;84.72;26.27;;;;;;;;;;2081379;28;20144;-77
2023/12/08 07:01:28;;;;;;;;;;;;;;;;;;2075110;28;20065;-77
2023/12/08 07:02:47;;;;;;;91.07;26.30;;;;;;;;;;2078303;28;20013;-77
2023/12/08 07:04:06;;;;;;;90.82;26.17;;;;;;;;;;2081062;28;20029;-77
2023/12/08 07:05:25;;;;;;;75.57;24.38;;;;;;;;;;2081085;28;20034;-77
2023/12/08 07:06:45;;;;;;;78.63;25.55;;;;;;;;;;2075427;28;20029;-77
2023/12/08 07:08:04;;;;;;;76.78;24.90;;;;;;;;;;2078759;28;20116;-78
2023/12/08 07:09:22;;;;;;;91.80;25.25;;;;;;;;;;2081800;28;20037;-78
2023/12/08 07:10:41;;;;;;;73.40;24.70;;;;;;;;;;2083483;28;20034;-77
2023/12/08 07:12:01;;;;;;;78.32;24.23;;;;;;;;;;2081655;28;20076;-77
2023/12/08 07:13:20;;;;;;;72.13;22.83;;;;;;;;;;2080050;28;20461;-77
2023/12/08 07:14:39;;;;;;;78.68;25.23;;;;;;;;;;2080761;28;20025;-77
2023/12/08 07:15:58;;;;;;;77.00;22.95;;;;;;;;;;2075412;28;20526;-77
2023/12/08 07:17:18;;;;;;;81.15;24.38;;;;;;;;;;2071542;28;20096;-77
2023/12/08 07:18:37;;;;;;;75.13;22.90;;;;;;;;;;2078719;28;20037;-77
2023/12/08 07:19:56;;;;;;;72.68;22.25;;;;;;;;;;2081291;28;20025;-76
2023/12/08 07:21:15;;;;;;;73.00;22.40;;;;;;;;;;2074757;28;20030;-77
2023/12/08 07:22:34;;;;;;;74.40;22.65;;;;;;;;;;2077815;28;20029;-77
2023/12/08 07:23:53;;;;;;;65.13;21.70;;;;;;;;;;2081606;28;20025;-77
2023/12/08 07:25:12;;;;;;;59.05;21.52;;;;;;;;;;2082015;28;20033;-76
2023/12/08 07:26:31;;;;;;;71.75;20.95;;;;;;;;;;2079966;28;20038;-77
2023/12/08 07:27:51;;;;;;;64.80;21.33;;;;;;;;;;2074611;28;20075;-76
2023/12/08 07:29:10;;;;;;;59.30;20.33;;;;;;;;;;2079382;28;20120;-77
2023/12/08 07:30:29;;;;;;;60.90;20.30;;;;;;;;;;2082658;28;20116;-77
2023/12/08 07:31:48;;;;;;;62.30;20.25;;;;;;;;;;2079553;28;20033;-77
2023/12/08 07:33:08;;;;;;;50.35;18.65;;;;;;;;;;2075441;28;20415;-77
2023/12/08 07:34:27;;;;;;;60.53;19.90;;;;;;;;;;2072323;28;20025;-77
2023/12/08 07:35:46;;;;;;;53.15;18.75;;;;;;;;;;2088233;28;20010;-77
2023/12/08 07:37:05;;;;;;;60.47;19.52;;;;;;;;;;2089618;28;20089;-77
2023/12/08 07:38:25;;;;;;;59.83;19.35;;;;;;;;;;2088347;28;20030;-77
2023/12/08 07:39:44;;;;;;;65.50;19.30;;;;;;;;;;2084383;28;20081;-77
2023/12/08 07:41:03;;;;;;;51.67;18.30;;;;;;;;;;2076937;28;20566;-77